createdAt,value
2022-09-18T00:01:33.790Z,10.70
2022-09-18T00:04:06.908Z,10.70
2022-09-18T00:06:38.440Z,10.60
2022-09-18T00:09:09.015Z,10.70
2022-09-18T00:11:43.248Z,10.70
2022-09-18T00:14:13.204Z,10.70
2022-09-18T00:16:41.175Z,10.60
2022-09-18T00:19:09.509Z,10.60
2022-09-18T00:21:40.085Z,10.60
2022-09-18T00:24:07.652Z,10.70
2022-09-18T00:26:35.787Z,10.60
2022-09-18T00:29:04.380Z,10.70
2022-09-18T00:31:35.167Z,10.70
2022-09-18T00:34:05.897Z,10.70
2022-09-18T00:36:34.267Z,10.70
2022-09-18T00:39:02.938Z,10.70
2022-09-18T00:41:33.044Z,10.70
2022-09-18T00:44:28.463Z,10.70
2022-09-18T00:47:04.189Z,10.60
2022-09-18T00:49:32.291Z,10.60
2022-09-18T00:52:01.916Z,10.60
2022-09-18T00:54:36.819Z,10.60
2022-09-18T00:57:09.302Z,10.60
2022-09-18T00:59:37.973Z,10.50
2022-09-18T01:02:05.529Z,10.60
2022-09-18T01:04:33.580Z,10.50
2022-09-18T01:07:37.847Z,10.50
2022-09-18T01:11:02.614Z,10.50
2022-09-18T01:13:51.712Z,10.50
2022-09-18T01:16:25.411Z,10.50
2022-09-18T01:19:26.107Z,10.50
2022-09-18T01:22:25.943Z,10.50
2022-09-18T01:25:20.048Z,10.50
2022-09-18T01:27:47.341Z,10.50
2022-09-18T01:30:15.257Z,10.50
2022-09-18T01:32:57.698Z,10.40
2022-09-18T01:35:42.003Z,10.40
2022-09-18T01:38:28.183Z,10.40
2022-09-18T01:41:12.330Z,10.40
2022-09-18T01:43:41.011Z,10.30
2022-09-18T01:46:13.614Z,10.30
2022-09-18T01:49:09.499Z,10.30
2022-09-18T01:52:10.161Z,10.40
2022-09-18T01:54:43.883Z,10.30
2022-09-18T01:57:39.685Z,10.20
2022-09-18T02:00:12.604Z,10.30
2022-09-18T02:02:58.494Z,10.20
2022-09-18T02:05:38.015Z,10.20
2022-09-18T02:08:08.262Z,10.10
2022-09-18T02:10:43.083Z,10.10
2022-09-18T02:13:15.177Z,10.00
2022-09-18T02:15:48.018Z,10.00
2022-09-18T02:18:27.045Z,9.90
2022-09-18T02:20:56.731Z,9.90
2022-09-18T02:23:25.878Z,9.90
2022-09-18T02:26:01.889Z,9.80
2022-09-18T02:28:32.097Z,9.80
2022-09-18T02:31:01.038Z,9.80
2022-09-18T02:33:30.476Z,9.90
2022-09-18T02:36:26.528Z,9.70
2022-09-18T02:39:03.589Z,9.80
2022-09-18T02:42:14.276Z,9.70
2022-09-18T02:45:02.663Z,9.70
2022-09-18T02:47:51.867Z,9.70
2022-09-18T02:50:38.302Z,9.80
2022-09-18T02:53:27.263Z,9.80
2022-09-18T02:56:05.302Z,9.80
2022-09-18T02:58:45.074Z,9.80
2022-09-18T03:01:14.128Z,9.80
2022-09-18T03:03:42.353Z,9.80
2022-09-18T03:06:12.084Z,9.90
2022-09-18T03:08:40.006Z,9.90
2022-09-18T03:11:07.369Z,9.90
2022-09-18T03:13:35.343Z,9.90
2022-09-18T03:16:04.150Z,9.90
2022-09-18T03:18:31.551Z,9.90
2022-09-18T03:20:59.991Z,9.90
2022-09-18T03:23:27.376Z,9.90
2022-09-18T03:26:04.576Z,9.90
2022-09-18T03:28:34.085Z,9.90
2022-09-18T03:31:01.728Z,9.80
2022-09-18T03:33:31.178Z,9.80
2022-09-18T03:35:58.726Z,9.70
2022-09-18T03:38:27.146Z,9.70
2022-09-18T03:40:55.651Z,9.60
2022-09-18T03:43:23.178Z,9.60
2022-09-18T03:45:50.876Z,9.50
2022-09-18T03:48:19.285Z,9.40
2022-09-18T03:50:50.149Z,9.40
2022-09-18T03:53:18.134Z,9.40
2022-09-18T03:55:52.967Z,9.30
2022-09-18T03:58:38.642Z,9.30
2022-09-18T04:01:21.293Z,9.30
2022-09-18T04:04:09.055Z,9.30
2022-09-18T04:06:48.856Z,9.30
2022-09-18T04:09:36.542Z,9.20
2022-09-18T04:12:04.013Z,9.20
2022-09-18T04:14:31.400Z,9.10
2022-09-18T04:17:00.508Z,9.10
2022-09-18T04:19:28.259Z,9.10
2022-09-18T04:21:57.339Z,9.10
2022-09-18T04:24:24.766Z,9.10
2022-09-18T04:26:52.105Z,9.00
2022-09-18T04:29:22.176Z,9.10
2022-09-18T04:31:51.961Z,9.10
2022-09-18T04:34:21.769Z,9.20
2022-09-18T04:36:49.175Z,9.10
2022-09-18T04:39:16.723Z,9.20
2022-09-18T04:41:46.140Z,9.20
2022-09-18T04:44:14.729Z,9.10
2022-09-18T04:46:43.595Z,9.20
2022-09-18T04:49:11.413Z,9.20
2022-09-18T04:51:39.242Z,9.20
2022-09-18T04:54:06.647Z,9.10
2022-09-18T04:56:37.679Z,9.20
2022-09-18T04:59:05.113Z,9.10
2022-09-18T05:01:35.103Z,9.20
2022-09-18T05:04:08.987Z,9.20
2022-09-18T05:06:59.510Z,9.20
2022-09-18T05:09:27.032Z,9.30
2022-09-18T05:11:55.358Z,9.40
2022-09-18T05:14:24.445Z,9.40
2022-09-18T05:16:56.654Z,9.40
2022-09-18T05:19:44.246Z,9.40
2022-09-18T05:22:21.709Z,9.40
2022-09-18T05:24:51.635Z,9.50
2022-09-18T05:27:20.631Z,9.60
2022-09-18T05:29:50.867Z,10.00
2022-09-18T05:32:22.485Z,10.30
2022-09-18T05:34:51.594Z,10.90
2022-09-18T05:37:19.334Z,11.50
2022-09-18T05:39:51.400Z,12.30
2022-09-18T05:42:18.879Z,12.80
2022-09-18T05:44:46.626Z,13.80
2022-09-18T05:47:19.311Z,14.00
2022-09-18T05:49:46.763Z,13.70
2022-09-18T05:52:14.115Z,13.70
2022-09-18T05:54:41.820Z,13.20
2022-09-18T05:57:10.182Z,13.00
2022-09-18T05:59:37.558Z,12.90
2022-09-18T06:02:06.310Z,12.80
2022-09-18T06:04:53.981Z,12.30
2022-09-18T06:07:21.388Z,12.30
2022-09-18T06:09:48.771Z,12.30
2022-09-18T06:12:16.161Z,12.30
2022-09-18T06:14:44.229Z,12.50
2022-09-18T06:17:11.563Z,12.50
2022-09-18T06:19:38.885Z,12.50
2022-09-18T06:22:06.284Z,12.20
2022-09-18T06:24:34.794Z,12.20
2022-09-18T06:27:07.426Z,12.40
2022-09-18T06:29:35.179Z,12.50
2022-09-18T06:32:09.337Z,12.20
2022-09-18T06:34:38.924Z,12.30
2022-09-18T06:37:12.378Z,12.00
2022-09-18T06:40:07.939Z,12.00
2022-09-18T06:42:57.980Z,12.30
2022-09-18T06:45:44.336Z,12.20
2022-09-18T06:48:11.748Z,12.40
2022-09-18T06:50:39.260Z,12.40
2022-09-18T06:53:12.427Z,12.20
2022-09-18T06:55:51.126Z,12.10
2022-09-18T06:58:21.654Z,12.20
2022-09-18T07:00:52.474Z,12.20
2022-09-18T07:03:28.438Z,12.30
2022-09-18T07:06:13.616Z,12.30
2022-09-18T07:08:47.506Z,12.30
2022-09-18T07:11:26.423Z,12.60
2022-09-18T07:13:54.384Z,12.90
2022-09-18T07:16:21.699Z,12.80
2022-09-18T07:18:49.464Z,12.60
2022-09-18T07:21:19.769Z,12.80
2022-09-18T07:23:47.053Z,13.00
2022-09-18T07:26:14.531Z,13.10
2022-09-18T07:28:42.164Z,13.30
2022-09-18T07:31:34.777Z,13.40
2022-09-18T07:34:07.357Z,13.60
2022-09-18T07:36:35.881Z,13.90
2022-09-18T07:39:04.102Z,14.30
2022-09-18T07:41:41.244Z,14.60
2022-09-18T07:44:08.729Z,14.90
2022-09-18T07:46:36.108Z,15.10
2022-09-18T07:49:05.465Z,15.30
2022-09-18T07:51:32.743Z,15.20
2022-09-18T07:54:00.417Z,15.20
2022-09-18T07:56:54.084Z,15.20
2022-09-18T07:59:24.587Z,15.20
2022-09-18T08:01:58.720Z,15.10
2022-09-18T08:04:28.355Z,15.20
2022-09-18T08:07:17.262Z,15.20
2022-09-18T08:10:17.003Z,15.30
2022-09-18T08:12:54.529Z,15.40
2022-09-18T08:15:24.669Z,15.70
2022-09-18T08:18:12.272Z,16.20
2022-09-18T08:20:57.804Z,16.50
2022-09-18T08:23:31.312Z,16.70
2022-09-18T08:26:04.773Z,17.20
2022-09-18T08:28:32.989Z,18.30
2022-09-18T08:31:02.319Z,19.10
2022-09-18T08:33:29.739Z,19.50
2022-09-18T08:35:57.408Z,20.20
2022-09-18T08:38:36.522Z,20.90
2022-09-18T08:41:38.445Z,21.80
2022-09-18T08:44:24.009Z,22.70
2022-09-18T08:47:02.323Z,22.80
2022-09-18T08:49:39.468Z,22.10
2022-09-18T08:52:15.114Z,20.60
2022-09-18T08:55:01.184Z,19.80
2022-09-18T08:57:59.327Z,19.20
2022-09-18T09:00:42.015Z,18.50
2022-09-18T09:03:40.800Z,18.50
2022-09-18T09:06:23.837Z,18.50
2022-09-18T09:09:00.847Z,18.30
2022-09-18T09:11:29.981Z,17.80
2022-09-18T09:14:11.045Z,17.50
2022-09-18T09:17:07.246Z,17.30
2022-09-18T09:19:37.439Z,16.90
2022-09-18T09:22:19.154Z,16.50
2022-09-18T09:25:07.752Z,16.40
2022-09-18T09:28:16.341Z,16.20
2022-09-18T09:31:07.866Z,16.00
2022-09-18T09:33:57.983Z,15.80
2022-09-18T09:36:49.999Z,15.60
2022-09-18T09:39:39.691Z,15.60
2022-09-18T09:42:23.189Z,15.50
2022-09-18T09:45:15.526Z,15.50
2022-09-18T09:48:04.811Z,15.70
2022-09-18T09:50:51.553Z,15.70
2022-09-18T09:53:20.126Z,15.70
2022-09-18T09:56:08.959Z,15.70
2022-09-18T09:58:54.591Z,15.70
2022-09-18T10:01:59.663Z,16.00
2022-09-18T10:04:56.597Z,15.90
2022-09-18T10:07:51.993Z,15.80
2022-09-18T10:10:31.359Z,15.90
2022-09-18T10:13:06.315Z,15.70
2022-09-18T10:15:41.795Z,15.40
2022-09-18T10:18:23.822Z,15.20
2022-09-18T10:20:57.857Z,15.10
2022-09-18T10:23:34.210Z,14.80
2022-09-18T10:26:04.039Z,14.70
2022-09-18T10:28:33.430Z,14.60
2022-09-18T10:31:05.520Z,14.50
2022-09-18T10:33:47.899Z,14.50
2022-09-18T10:36:44.125Z,14.40
2022-09-18T10:39:31.594Z,14.40
2022-09-18T10:42:07.208Z,14.40
2022-09-18T10:44:40.896Z,14.30
2022-09-18T10:47:18.632Z,14.30
2022-09-18T10:50:12.151Z,14.20
2022-09-18T10:52:49.772Z,14.20
2022-09-18T10:55:51.512Z,14.20
2022-09-18T10:58:29.680Z,14.20
2022-09-18T11:01:05.773Z,14.20
2022-09-18T11:03:41.685Z,14.30
2022-09-18T11:06:26.304Z,14.30
2022-09-18T11:08:59.693Z,14.40
2022-09-18T11:11:31.211Z,14.70
2022-09-18T11:14:16.116Z,15.40
2022-09-18T11:17:01.021Z,16.40
2022-09-18T11:19:40.628Z,18.10
2022-09-18T11:22:44.457Z,18.90
2022-09-18T11:25:32.477Z,19.50
2022-09-18T11:28:31.463Z,20.10
2022-09-18T11:31:06.840Z,20.20
2022-09-18T11:33:44.023Z,21.00
2022-09-18T11:36:14.750Z,21.30
2022-09-18T11:38:45.298Z,21.00
2022-09-18T11:41:21.921Z,19.60
2022-09-18T11:44:11.322Z,18.80
2022-09-18T11:46:41.579Z,18.80
2022-09-18T11:49:22.113Z,19.50
2022-09-18T11:52:14.274Z,19.20
2022-09-18T11:54:57.227Z,19.90
2022-09-18T11:57:45.508Z,20.40
2022-09-18T12:00:22.590Z,19.90
2022-09-18T12:03:06.911Z,19.90
2022-09-18T12:06:04.468Z,20.40
2022-09-18T12:08:48.941Z,21.40
2022-09-18T12:11:47.819Z,21.50
2022-09-18T12:14:25.803Z,21.20
2022-09-18T12:17:31.821Z,20.50
2022-09-18T12:20:09.517Z,19.40
2022-09-18T12:22:57.461Z,18.40
2022-09-18T12:25:43.443Z,17.80
2022-09-18T12:28:35.351Z,17.50
2022-09-18T12:31:19.685Z,17.50
2022-09-18T12:34:31.043Z,17.70
2022-09-18T12:37:05.665Z,18.30
2022-09-18T12:40:14.259Z,18.90
2022-09-18T12:43:11.165Z,19.00
2022-09-18T12:45:38.580Z,18.90
2022-09-18T12:48:36.441Z,19.50
2022-09-18T12:51:51.281Z,20.30
2022-09-18T12:54:35.978Z,20.40
2022-09-18T12:57:10.260Z,20.30
2022-09-18T12:59:52.553Z,21.00
2022-09-18T13:02:24.824Z,21.10
2022-09-18T13:05:01.817Z,21.50
2022-09-18T13:07:35.416Z,21.90
2022-09-18T13:10:26.349Z,21.80
2022-09-18T13:13:23.059Z,21.40
2022-09-18T13:15:55.270Z,20.20
2022-09-18T13:18:29.081Z,19.40
2022-09-18T13:20:58.677Z,18.80
2022-09-18T13:23:35.246Z,18.80
2022-09-18T13:26:05.771Z,19.30
2022-09-18T13:28:33.675Z,19.80
2022-09-18T13:31:34.992Z,19.70
2022-09-18T13:34:06.852Z,19.30
2022-09-18T13:36:36.855Z,19.50
2022-09-18T13:39:17.101Z,19.50
2022-09-18T13:41:49.167Z,19.40
2022-09-18T13:44:19.486Z,19.30
2022-09-18T13:46:48.088Z,19.50
2022-09-18T13:49:35.838Z,19.30
2022-09-18T13:52:36.234Z,19.40
2022-09-18T13:55:16.529Z,19.60
2022-09-18T13:57:44.986Z,19.70
2022-09-18T14:00:21.237Z,19.30
2022-09-18T14:03:07.836Z,19.10
2022-09-18T14:05:40.573Z,19.10
2022-09-18T14:08:23.349Z,18.70
2022-09-18T14:11:13.716Z,18.30
2022-09-18T14:13:51.511Z,18.10
2022-09-18T14:16:22.542Z,18.30
2022-09-18T14:18:49.895Z,18.20
2022-09-18T14:21:40.256Z,18.10
2022-09-18T14:24:44.988Z,18.20
2022-09-18T14:27:43.316Z,18.20
2022-09-18T14:30:21.214Z,17.90
2022-09-18T14:33:19.029Z,17.80
2022-09-18T14:36:02.907Z,17.80
2022-09-18T14:38:34.486Z,17.60
2022-09-18T14:41:06.861Z,17.20
2022-09-18T14:43:34.387Z,17.00
2022-09-18T14:46:01.964Z,16.70
2022-09-18T14:48:38.192Z,16.40
2022-09-18T14:51:15.759Z,16.30
2022-09-18T14:53:45.895Z,16.30
2022-09-18T14:56:20.754Z,16.10
2022-09-18T14:58:50.738Z,16.00
2022-09-18T15:01:23.853Z,15.90
2022-09-18T15:03:53.584Z,15.80
2022-09-18T15:06:48.364Z,15.80
2022-09-18T15:09:23.737Z,15.70
2022-09-18T15:12:06.738Z,15.70
2022-09-18T15:14:45.430Z,15.70
2022-09-18T15:17:22.089Z,15.70
2022-09-18T15:20:10.073Z,15.60
2022-09-18T15:22:37.519Z,15.60
2022-09-18T15:25:11.521Z,15.50
2022-09-18T15:27:40.605Z,15.50
2022-09-18T15:30:16.775Z,15.40
2022-09-18T15:32:50.110Z,15.30
2022-09-18T15:35:34.653Z,15.30
2022-09-18T15:38:06.166Z,15.20
2022-09-18T15:40:40.202Z,15.10
2022-09-18T15:43:30.567Z,15.00
2022-09-18T15:46:09.376Z,15.00
2022-09-18T15:48:40.994Z,15.00
2022-09-18T15:51:17.306Z,15.00
2022-09-18T15:54:14.819Z,15.00
2022-09-18T15:56:56.772Z,14.90
2022-09-18T15:59:31.834Z,14.90
2022-09-18T16:02:00.696Z,14.80
2022-09-18T16:04:33.165Z,14.80
2022-09-18T16:07:17.354Z,14.70
2022-09-18T16:09:49.539Z,14.60
2022-09-18T16:12:22.831Z,14.60
2022-09-18T16:15:00.571Z,14.50
2022-09-18T16:17:36.893Z,14.40
2022-09-18T16:20:28.523Z,14.30
2022-09-18T16:23:21.322Z,14.20
2022-09-18T16:26:21.621Z,14.10
2022-09-18T16:29:01.634Z,14.00
2022-09-18T16:31:32.305Z,13.90
2022-09-18T16:34:02.471Z,13.80
2022-09-18T16:36:34.304Z,13.70
2022-09-18T16:39:08.293Z,13.60
2022-09-18T16:41:36.481Z,13.50
2022-09-18T16:44:05.784Z,13.40
2022-09-18T16:46:42.428Z,13.40
2022-09-18T16:49:16.243Z,13.40
2022-09-18T16:51:43.747Z,13.30
2022-09-18T16:54:11.191Z,13.30
2022-09-18T16:56:45.832Z,13.30
2022-09-18T16:59:13.880Z,13.20
2022-09-18T17:02:02.497Z,13.10
2022-09-18T17:04:29.561Z,13.00
2022-09-18T17:06:57.112Z,13.00
2022-09-18T17:09:25.056Z,12.90
2022-09-18T17:11:53.926Z,12.80
2022-09-18T17:14:21.991Z,12.70
2022-09-18T17:16:49.424Z,12.60
2022-09-18T17:19:17.046Z,12.50
2022-09-18T17:21:44.409Z,12.40
2022-09-18T17:24:12.166Z,12.30
2022-09-18T17:26:41.238Z,12.30
2022-09-18T17:29:11.465Z,12.30
2022-09-18T17:31:38.967Z,12.30
2022-09-18T17:34:06.424Z,12.20
2022-09-18T17:36:38.064Z,12.20
2022-09-18T17:39:06.711Z,12.10
2022-09-18T17:41:34.229Z,12.10
2022-09-18T17:44:01.831Z,11.90
2022-09-18T17:46:29.084Z,11.90
2022-09-18T17:48:59.751Z,11.80
2022-09-18T17:51:29.096Z,11.80
2022-09-18T17:54:04.967Z,11.80
2022-09-18T17:56:33.911Z,11.70
2022-09-18T17:59:05.634Z,11.70
2022-09-18T18:01:37.672Z,11.70
2022-09-18T18:04:06.520Z,11.60
2022-09-18T18:06:34.727Z,11.60
2022-09-18T18:09:02.162Z,11.60
2022-09-18T18:11:29.811Z,11.60
2022-09-18T18:13:57.111Z,11.70
2022-09-18T18:16:30.765Z,11.60
2022-09-18T18:19:04.807Z,11.60
2022-09-18T18:21:34.808Z,11.50
2022-09-18T18:24:06.971Z,11.50
2022-09-18T18:26:34.977Z,11.50
2022-09-18T18:29:05.920Z,11.50
2022-09-18T18:31:33.672Z,11.40
2022-09-18T18:34:01.058Z,11.50
2022-09-18T18:36:30.270Z,11.50
2022-09-18T18:39:00.063Z,11.40
2022-09-18T18:41:29.954Z,11.40
2022-09-18T18:44:00.101Z,11.40
2022-09-18T18:46:29.511Z,11.30
2022-09-18T18:49:03.976Z,11.20
2022-09-18T18:51:35.467Z,11.20
2022-09-18T18:54:04.299Z,11.10
2022-09-18T18:56:34.251Z,11.10
2022-09-18T18:59:03.779Z,11.00
2022-09-18T19:01:32.226Z,10.90
2022-09-18T19:04:08.439Z,10.80
2022-09-18T19:06:39.035Z,10.70
2022-09-18T19:09:20.268Z,10.70
2022-09-18T19:11:50.153Z,10.70
2022-09-18T19:14:21.429Z,10.60
2022-09-18T19:16:51.380Z,10.60
2022-09-18T19:19:20.528Z,10.60
2022-09-18T19:21:48.039Z,10.60
2022-09-18T19:24:18.702Z,10.70
2022-09-18T19:26:47.167Z,10.70
2022-09-18T19:29:17.463Z,10.70
2022-09-18T19:31:46.691Z,10.60
2022-09-18T19:34:16.529Z,10.70
2022-09-18T19:36:47.297Z,10.70
2022-09-18T19:39:15.334Z,10.70
2022-09-18T19:41:51.498Z,10.70
2022-09-18T19:44:31.493Z,10.70
2022-09-18T19:47:02.451Z,10.60
2022-09-18T19:49:33.772Z,10.50
2022-09-18T19:52:02.272Z,10.50
2022-09-18T19:54:30.042Z,10.40
2022-09-18T19:56:59.160Z,10.40
2022-09-18T19:59:26.512Z,10.30
2022-09-18T20:01:54.853Z,10.40
2022-09-18T20:04:22.167Z,10.40
2022-09-18T20:06:49.852Z,10.40
2022-09-18T20:09:17.176Z,10.30
2022-09-18T20:11:48.127Z,10.30
2022-09-18T20:14:16.316Z,10.30
2022-09-18T20:16:43.646Z,10.30
2022-09-18T20:19:11.158Z,10.40
2022-09-18T20:21:38.468Z,10.40
2022-09-18T20:24:06.269Z,10.40
2022-09-18T20:26:33.706Z,10.40
2022-09-18T20:29:01.339Z,10.40
2022-09-18T20:31:29.046Z,10.30
2022-09-18T20:33:57.984Z,10.30
2022-09-18T20:36:26.447Z,10.20
2022-09-18T20:38:58.164Z,10.20
2022-09-18T20:41:29.817Z,10.30
2022-09-18T20:44:00.310Z,10.20
2022-09-18T20:46:27.753Z,10.20
2022-09-18T20:48:55.274Z,10.20
2022-09-18T20:51:25.933Z,10.20
2022-09-18T20:53:57.605Z,10.30
2022-09-18T20:56:27.590Z,10.30
2022-09-18T20:58:55.291Z,10.30
2022-09-18T21:01:25.174Z,10.20
2022-09-18T21:03:58.144Z,10.20
2022-09-18T21:06:28.978Z,10.20
2022-09-18T21:08:56.671Z,10.30
2022-09-18T21:11:25.691Z,10.30
2022-09-18T21:13:54.961Z,10.40
2022-09-18T21:16:23.501Z,10.50
2022-09-18T21:18:53.643Z,10.50
2022-09-18T21:21:21.505Z,10.50
2022-09-18T21:23:56.641Z,10.50
2022-09-18T21:26:27.685Z,10.60
2022-09-18T21:28:58.369Z,10.60
2022-09-18T21:31:26.632Z,10.60
2022-09-18T21:33:54.182Z,10.60
2022-09-18T21:36:23.529Z,10.60
2022-09-18T21:38:51.665Z,10.50
2022-09-18T21:41:21.388Z,10.50
2022-09-18T21:43:50.713Z,10.40
2022-09-18T21:46:20.045Z,10.30
2022-09-18T21:48:49.183Z,10.30
2022-09-18T21:51:17.819Z,10.40
2022-09-18T21:53:45.635Z,10.40
2022-09-18T21:56:16.083Z,10.30
2022-09-18T21:58:47.534Z,10.30
2022-09-18T22:01:19.050Z,10.30
2022-09-18T22:03:56.193Z,10.20
2022-09-18T22:06:26.254Z,10.10
2022-09-18T22:08:56.502Z,10.10
2022-09-18T22:11:29.218Z,10.10
2022-09-18T22:13:59.802Z,10.10
2022-09-18T22:16:31.339Z,10.00
2022-09-18T22:18:59.555Z,10.00
2022-09-18T22:21:29.283Z,10.00
2022-09-18T22:23:59.384Z,10.00
2022-09-18T22:26:28.640Z,9.90
2022-09-18T22:28:57.136Z,9.90
2022-09-18T22:31:25.654Z,9.90
2022-09-18T22:33:57.803Z,9.90
2022-09-18T22:36:26.389Z,9.90
2022-09-18T22:38:54.493Z,9.80
2022-09-18T22:41:22.532Z,9.80
2022-09-18T22:43:55.281Z,9.80
2022-09-18T22:46:24.980Z,9.80
2022-09-18T22:48:52.733Z,9.80
2022-09-18T22:51:24.452Z,9.80
2022-09-18T22:53:55.065Z,9.80
2022-09-18T22:56:24.678Z,9.70
2022-09-18T22:58:52.890Z,9.60
2022-09-18T23:01:27.988Z,9.60
2022-09-18T23:03:57.059Z,9.60
2022-09-18T23:06:26.317Z,9.60
2022-09-18T23:08:56.340Z,9.60
2022-09-18T23:11:26.726Z,9.60
2022-09-18T23:14:00.095Z,9.60
2022-09-18T23:16:28.754Z,9.60
2022-09-18T23:19:10.186Z,9.60
2022-09-18T23:21:39.354Z,9.60
2022-09-18T23:24:09.259Z,9.60
2022-09-18T23:26:42.032Z,9.70
2022-09-18T23:29:13.071Z,9.60
2022-09-18T23:31:42.636Z,9.70
2022-09-18T23:34:15.155Z,9.60
2022-09-18T23:36:44.924Z,9.50
2022-09-18T23:39:15.666Z,9.50
2022-09-18T23:41:43.451Z,9.40
2022-09-18T23:44:13.517Z,9.50
2022-09-18T23:46:42.015Z,9.60
2022-09-18T23:49:12.362Z,9.60
2022-09-18T23:51:42.485Z,9.60
2022-09-18T23:54:16.926Z,9.70
2022-09-18T23:56:45.266Z,9.80
2022-09-18T23:59:13.597Z,9.90
